Time;durP1;ratioP1;P1;durP2;ratioP2;P2;SDS_P1;SDS_P2;PMS_P1;PMS_P2;Temp;Humidity;BMP_temperature;BMP_pressure;BME280_temperature;BME280_humidity;BME280_pressure;Samples;Min_cycle;Max_cycle;Signal;HPM_P1;HPM_P2
2021/08/20 00:01:56;;;;;;;2.90;2.50;;;21.10;71.40;;;;;;5157156;27;20547;-47
2021/08/20 00:04:22;;;;;;;2.97;2.15;;;21.10;71.40;;;;;;5157323;27;20046;-36
2021/08/20 00:06:47;;;;;;;2.53;2.20;;;21.10;71.40;;;;;;5156747;27;20053;-34
2021/08/20 00:09:13;;;;;;;2.40;2.10;;;21.10;71.40;;;;;;5157090;27;20074;-46
2021/08/20 00:11:40;;;;;;;2.15;1.95;;;21.10;71.40;;;;;;5157327;27;20444;-45
2021/08/20 00:14:07;;;;;;;2.20;2.00;;;21.10;71.40;;;;;;5156944;27;20042;-46
2021/08/20 00:16:33;;;;;;;2.80;2.20;;;21.10;71.40;;;;;;5157069;27;20103;-45
2021/08/20 00:18:59;;;;;;;1.95;1.75;;;21.10;71.40;;;;;;5157151;27;20043;-44
2021/08/20 00:21:25;;;;;;;2.67;2.22;;;21.10;71.40;;;;;;5157386;27;20045;-46
2021/08/20 00:23:50;;;;;;;3.10;2.10;;;21.10;71.40;;;;;;5156906;27;20414;-42
2021/08/20 00:26:16;;;;;;;2.20;2.00;;;21.10;71.40;;;;;;5156888;27;20126;-44
2021/08/20 00:28:42;;;;;;;2.30;2.08;;;21.10;71.40;;;;;;5156717;27;20122;-43
2021/08/20 00:31:08;;;;;;;2.70;2.22;;;21.10;71.40;;;;;;5156670;27;20043;-39
2021/08/20 00:33:35;;;;;;;2.55;2.05;;;21.10;71.40;;;;;;5138475;27;20039;-44
2021/08/20 00:36:04;;;;;;;2.30;1.83;;;21.10;71.40;;;;;;5156873;27;20082;-43
2021/08/20 00:38:31;;;;;;;2.90;2.28;;;21.10;71.40;;;;;;5156332;27;20043;-40
2021/08/20 00:40:57;;;;;;;2.58;2.38;;;21.10;71.40;;;;;;5156777;27;20039;-44
2021/08/20 00:43:25;;;;;;;2.20;1.95;;;21.10;71.40;;;;;;5156382;27;20398;-45
2021/08/20 00:45:59;;;;;;;2.35;2.00;;;21.10;71.50;;;;;;5156766;27;20050;-42
2021/08/20 00:48:25;;;;;;;2.92;2.45;;;21.10;71.40;;;;;;5156599;27;20352;-45
2021/08/20 00:51:00;;;;;;;2.72;2.33;;;21.10;71.40;;;;;;5156401;27;20068;-43
2021/08/20 00:53:27;;;;;;;2.30;1.88;;;21.10;71.40;;;;;;5155572;27;20050;-46
2021/08/20 00:55:53;;;;;;;2.35;2.10;;;21.10;71.40;;;;;;5156282;27;20047;-41
2021/08/20 00:58:20;;;;;;;2.13;1.92;;;21.10;71.40;;;;;;5156196;27;20053;-40
2021/08/20 01:00:46;;;;;;;2.78;2.33;;;21.10;71.40;;;;;;5156448;27;20042;-35
2021/08/20 01:03:12;;;;;;;3.20;2.55;;;21.10;71.40;;;;;;5156171;27;20042;-41
2021/08/20 01:05:38;;;;;;;1.95;1.80;;;21.10;71.40;;;;;;5156045;27;20153;-44
2021/08/20 01:08:05;;;;;;;2.45;2.22;;;21.10;71.50;;;;;;5155977;27;20051;-45
2021/08/20 01:10:31;;;;;;;2.13;1.80;;;21.10;71.50;;;;;;5155628;27;20043;-43
2021/08/20 01:12:57;;;;;;;2.67;2.30;;;21.00;71.40;;;;;;5156383;27;20074;-39
2021/08/20 01:15:23;;;;;;;3.00;2.13;;;21.10;71.50;;;;;;5156319;27;20066;-46
2021/08/20 01:17:50;;;;;;;2.63;2.10;;;21.10;71.50;;;;;;5156022;27;20117;-44
2021/08/20 01:20:18;;;;;;;2.47;2.00;;;21.10;71.50;;;;;;5155884;27;20047;-44
2021/08/20 01:22:44;;;;;;;2.72;2.20;;;21.00;71.40;;;;;;5155698;27;20046;-39
2021/08/20 01:25:10;;;;;;;2.58;2.22;;;21.10;71.50;;;;;;5155613;27;20183;-41
2021/08/20 01:27:36;;;;;;;2.58;2.10;;;21.00;71.40;;;;;;5155138;27;20398;-49
2021/08/20 01:30:04;;;;;;;2.35;2.10;;;21.00;71.40;;;;;;5155624;27;20046;-49
2021/08/20 01:32:30;;;;;;;2.35;1.95;;;21.00;71.40;;;;;;5155501;27;20051;-48
2021/08/20 01:34:55;;;;;;;2.67;2.08;;;21.00;71.40;;;;;;5155563;27;20039;-46
2021/08/20 01:37:21;;;;;;;2.30;1.90;;;21.10;71.50;;;;;;5155473;27;20053;-41
2021/08/20 01:39:47;;;;;;;2.65;1.90;;;21.00;71.40;;;;;;5155272;27;20531;-35
2021/08/20 01:42:13;;;;;;;2.90;1.80;;;21.10;71.50;;;;;;5154853;27;20127;-48
2021/08/20 01:44:41;;;;;;;2.25;1.95;;;21.00;71.40;;;;;;5155425;27;20054;-45
2021/08/20 01:47:10;;;;;;;2.55;2.10;;;21.00;71.40;;;;;;5155331;27;20414;-45
2021/08/20 01:49:38;;;;;;;2.50;2.30;;;21.10;71.50;;;;;;5155197;27;20051;-46
2021/08/20 01:52:04;;;;;;;2.20;2.00;;;21.00;71.40;;;;;;5155175;27;20073;-35
2021/08/20 01:54:29;;;;;;;2.60;2.10;;;21.00;71.40;;;;;;5155011;27;20070;-49
2021/08/20 01:56:55;;;;;;;2.60;2.38;;;21.00;71.40;;;;;;5154720;27;20432;-37
2021/08/20 01:59:21;;;;;;;2.20;1.88;;;21.00;71.40;;;;;;5154798;27;20047;-45
2021/08/20 02:01:47;;;;;;;2.28;2.00;;;21.00;71.40;;;;;;5154879;27;20106;-47
2021/08/20 02:04:13;;;;;;;3.25;2.17;;;21.00;71.40;;;;;;5154894;27;20414;-48
2021/08/20 02:06:38;;;;;;;3.17;2.42;;;21.00;71.40;;;;;;5154777;27;20122;-36
2021/08/20 02:09:04;;;;;;;3.55;2.30;;;21.00;71.40;;;;;;5154506;27;20089;-45
2021/08/20 02:11:30;;;;;;;2.63;2.17;;;21.10;71.50;;;;;;5154847;27;20083;-45
2021/08/20 02:13:56;;;;;;;2.90;2.50;;;21.00;71.50;;;;;;5154325;27;20465;-46
2021/08/20 02:16:21;;;;;;;3.30;2.53;;;21.00;71.40;;;;;;5154760;27;20046;-34
2021/08/20 02:18:47;;;;;;;3.30;2.58;;;21.00;71.50;;;;;;5154663;27;20046;-35
2021/08/20 02:21:13;;;;;;;3.05;2.50;;;21.00;71.50;;;;;;5154693;27;20106;-45
2021/08/20 02:23:38;;;;;;;3.03;2.50;;;21.00;71.50;;;;;;5154526;27;20050;-43
2021/08/20 02:26:06;;;;;;;3.22;2.47;;;21.00;71.50;;;;;;5136158;27;20043;-36
2021/08/20 02:28:32;;;;;;;3.15;2.67;;;21.00;71.50;;;;;;5154077;27;20039;-47
2021/08/20 02:30:58;;;;;;;3.05;2.55;;;21.00;71.50;;;;;;5154536;27;20054;-45
2021/08/20 02:33:23;;;;;;;2.78;2.42;;;21.00;71.50;;;;;;5154500;27;20494;-49
2021/08/20 02:35:49;;;;;;;3.80;2.88;;;21.00;71.50;;;;;;5154585;27;20100;-47
2021/08/20 02:38:15;;;;;;;3.42;2.53;;;21.00;71.50;;;;;;5154608;27;20394;-45
2021/08/20 02:40:41;;;;;;;3.67;2.97;;;21.00;71.50;;;;;;5154654;27;20043;-34
2021/08/20 02:43:26;;;;;;;2.85;2.45;;;21.00;71.50;;;;;;5138940;27;20119;-36
2021/08/20 02:45:53;;;;;;;2.95;2.47;;;21.00;71.50;;;;;;5153721;27;20050;-44
2021/08/20 02:48:19;;;;;;;2.60;2.28;;;21.00;71.50;;;;;;5154255;27;20581;-38
2021/08/20 02:50:45;;;;;;;4.80;2.75;;;21.00;71.50;;;;;;5154054;27;20517;-33
2021/08/20 02:53:11;;;;;;;2.58;2.30;;;21.00;71.50;;;;;;5154150;27;20122;-42
2021/08/20 02:55:36;;;;;;;3.55;2.67;;;21.00;71.50;;;;;;5154032;27;20115;-40
2021/08/20 02:58:04;;;;;;;2.97;2.30;;;21.00;71.50;;;;;;5153931;27;20055;-40
2021/08/20 03:00:30;;;;;;;3.90;3.38;;;21.00;71.50;;;;;;5153743;27;20043;-47
2021/08/20 03:02:56;;;;;;;2.92;2.63;;;21.00;71.60;;;;;;5154027;27;20121;-38
2021/08/20 03:05:22;;;;;;;3.58;2.85;;;21.00;71.50;;;;;;5153926;27;20058;-42
2021/08/20 03:07:48;;;;;;;2.70;2.47;;;21.00;71.50;;;;;;5153915;27;20091;-42
2021/08/20 03:10:14;;;;;;;2.85;2.40;;;21.00;71.50;;;;;;5153678;27;20050;-38
2021/08/20 03:12:39;;;;;;;4.20;2.83;;;21.00;71.50;;;;;;5153967;27;20065;-41
2021/08/20 03:15:06;;;;;;;3.35;2.63;;;21.00;71.50;;;;;;5154337;27;20494;-36
2021/08/20 03:17:31;;;;;;;3.33;2.97;;;21.00;71.50;;;;;;5153005;27;20047;-40
2021/08/20 03:19:57;;;;;;;4.13;2.67;;;21.00;71.50;;;;;;5153605;27;20126;-37
2021/08/20 03:22:23;;;;;;;3.63;2.97;;;21.00;71.50;;;;;;5153696;27;20387;-40
2021/08/20 03:24:49;;;;;;;3.45;2.75;;;21.00;71.60;;;;;;5153669;27;20144;-36
2021/08/20 03:27:15;;;;;;;3.72;2.65;;;20.90;71.50;;;;;;5153493;27;20046;-39
2021/08/20 03:29:41;;;;;;;3.40;2.85;;;20.90;71.50;;;;;;5153370;27;20055;-41
2021/08/20 03:32:07;;;;;;;3.08;2.72;;;20.90;71.50;;;;;;5153281;27;20062;-36
2021/08/20 03:34:33;;;;;;;2.30;2.10;;;21.00;71.60;;;;;;5153455;27;20077;-35
2021/08/20 03:36:59;;;;;;;2.95;2.67;;;20.90;71.50;;;;;;5153594;27;20066;-38
2021/08/20 03:39:24;;;;;;;3.25;2.75;;;20.90;71.50;;;;;;5153437;27;20039;-42
2021/08/20 03:41:50;;;;;;;2.97;2.45;;;21.00;71.60;;;;;;5153476;27;20050;-40
2021/08/20 03:44:16;;;;;;;3.08;2.40;;;20.90;71.50;;;;;;5153217;27;20411;-39
2021/08/20 03:46:42;;;;;;;2.78;2.33;;;20.90;71.50;;;;;;5153317;27;20418;-44
2021/08/20 03:49:07;;;;;;;3.38;2.60;;;20.90;71.50;;;;;;5153081;27;20047;-39
2021/08/20 03:51:33;;;;;;;4.72;2.80;;;21.00;71.60;;;;;;5153262;27;20375;-38
2021/08/20 03:53:59;;;;;;;3.85;2.83;;;20.90;71.50;;;;;;5153144;27;20050;-38
2021/08/20 03:56:25;;;;;;;3.83;2.83;;;20.90;71.50;;;;;;5153153;27;20042;-37
2021/08/20 03:58:53;;;;;;;4.00;2.80;;;20.90;71.50;;;;;;5153146;27;20047;-35
2021/08/20 04:01:19;;;;;;;2.67;2.40;;;20.90;71.50;;;;;;5152991;27;20134;-47
2021/08/20 04:03:45;;;;;;;2.40;2.20;;;20.90;71.50;;;;;;5152747;27;20596;-49
2021/08/20 04:06:11;;;;;;;2.70;2.30;;;20.90;71.50;;;;;;5153045;27;20042;-45
2021/08/20 04:08:37;;;;;;;3.17;2.60;;;20.90;71.50;;;;;;5153005;27;20082;-47
2021/08/20 04:11:03;;;;;;;3.42;3.10;;;20.90;71.50;;;;;;5153234;27;20409;-49
2021/08/20 04:13:29;;;;;;;2.83;2.40;;;20.90;71.50;;;;;;5153109;27;20053;-34
2021/08/20 04:15:55;;;;;;;2.85;2.40;;;20.90;71.60;;;;;;5152502;27;20108;-45
2021/08/20 04:18:20;;;;;;;2.67;2.22;;;20.90;71.60;;;;;;5152507;27;20038;-34
2021/08/20 04:20:46;;;;;;;3.65;2.70;;;20.90;71.50;;;;;;5151769;27;20482;-47
2021/08/20 04:23:12;;;;;;;3.95;2.70;;;20.90;71.60;;;;;;5152258;27;20085;-45
2021/08/20 04:25:38;;;;;;;3.05;2.53;;;20.90;71.60;;;;;;5152892;27;20417;-43
2021/08/20 04:28:04;;;;;;;3.25;2.50;;;20.90;71.50;;;;;;5153814;27;20122;-44
2021/08/20 04:30:30;;;;;;;3.40;3.10;;;20.90;71.60;;;;;;5156370;27;20358;-46
2021/08/20 04:32:59;;;;;;;3.60;2.67;;;20.90;71.60;;;;;;5156933;27;20039;-48
2021/08/20 04:35:27;;;;;;;3.97;2.95;;;20.80;71.60;;;;;;5156279;27;20043;-43
2021/08/20 04:37:53;;;;;;;2.90;2.53;;;20.90;71.60;;;;;;5156765;27;20482;-47
2021/08/20 04:40:19;;;;;;;3.88;2.70;;;20.90;71.60;;;;;;5156627;27;20043;-47
2021/08/20 04:42:45;;;;;;;2.67;2.33;;;20.90;71.60;;;;;;5156487;27;20043;-45
2021/08/20 04:45:12;;;;;;;3.92;2.60;;;20.90;71.60;;;;;;5156426;27;20088;-48
2021/08/20 04:47:38;;;;;;;3.10;2.80;;;20.90;71.60;;;;;;5156805;27;20138;-48
2021/08/20 04:50:04;;;;;;;3.00;2.53;;;20.90;71.60;;;;;;5156263;27;20125;-49
2021/08/20 04:52:30;;;;;;;3.92;3.15;;;20.90;71.60;;;;;;5156096;27;20047;-44
2021/08/20 04:54:56;;;;;;;4.22;2.75;;;20.90;71.60;;;;;;5156607;27;20042;-49
2021/08/20 04:57:22;;;;;;;3.13;2.30;;;20.90;71.60;;;;;;5156550;27;20047;-42
2021/08/20 04:59:55;;;;;;;2.88;2.28;;;20.90;71.60;;;;;;5156107;27;20137;-46
2021/08/20 05:02:22;;;;;;;3.22;2.70;;;20.90;71.60;;;;;;5156089;27;20118;-37
2021/08/20 05:04:47;;;;;;;3.20;2.55;;;20.90;71.60;;;;;;5156138;27;20121;-42
2021/08/20 05:07:13;;;;;;;3.00;2.40;;;20.90;71.60;;;;;;5155754;27;20077;-43
2021/08/20 05:09:39;;;;;;;2.65;2.20;;;20.90;71.60;;;;;;5155817;27;20059;-41
2021/08/20 05:12:08;;;;;;;2.85;2.53;;;20.90;71.60;;;;;;5156198;27;20074;-38
2021/08/20 05:14:34;;;;;;;2.67;2.28;;;20.90;71.60;;;;;;5156135;27;20134;-46
2021/08/20 05:16:59;;;;;;;2.80;2.50;;;20.80;71.60;;;;;;5156435;27;20078;-38
2021/08/20 05:19:25;;;;;;;2.90;2.50;;;20.90;71.60;;;;;;5156201;27;20050;-44
2021/08/20 05:21:51;;;;;;;4.05;2.65;;;20.90;71.60;;;;;;5155762;27;20893;-45
2021/08/20 05:24:16;;;;;;;4.07;2.90;;;20.90;71.60;;;;;;5155905;27;20045;-38
2021/08/20 05:26:43;;;;;;;3.15;2.45;;;20.80;71.60;;;;;;5155779;27;20049;-44
2021/08/20 05:29:08;;;;;;;3.67;3.05;;;20.90;71.60;;;;;;5156165;27;20197;-44
2021/08/20 05:31:34;;;;;;;3.00;2.40;;;20.90;71.60;;;;;;5156406;27;20051;-41
2021/08/20 05:34:00;;;;;;;3.72;2.97;;;20.90;71.60;;;;;;5156074;27;20114;-37
2021/08/20 05:36:27;;;;;;;4.88;3.63;;;20.80;71.60;;;;;;5155987;27;20039;-43
2021/08/20 05:38:53;;;;;;;2.25;2.03;;;20.90;71.60;;;;;;5154822;27;20047;-41
2021/08/20 05:41:18;;;;;;;2.85;2.38;;;20.90;71.70;;;;;;5155604;27;20042;-45
2021/08/20 05:43:44;;;;;;;2.83;2.55;;;20.80;71.60;;;;;;5155524;27;20043;-40
2021/08/20 05:46:10;;;;;;;3.42;2.70;;;20.90;71.60;;;;;;5136641;27;20151;-47
2021/08/20 05:48:36;;;;;;;2.67;2.20;;;20.80;71.60;;;;;;5155282;27;20091;-44
2021/08/20 05:51:02;;;;;;;2.92;2.20;;;20.90;71.70;;;;;;5155584;27;20409;-40
2021/08/20 05:53:27;;;;;;;4.13;2.83;;;20.90;71.70;;;;;;5154967;27;20111;-42
2021/08/20 05:55:54;;;;;;;3.10;2.42;;;20.90;71.70;;;;;;5155172;27;20047;-43
2021/08/20 05:58:19;;;;;;;3.53;2.88;;;20.80;71.60;;;;;;5155278;27;20069;-42
2021/08/20 06:00:45;;;;;;;2.67;2.15;;;20.90;71.70;;;;;;5155314;27;20118;-38
2021/08/20 06:03:21;;;;;;;3.28;2.50;;;20.80;71.60;;;;;;5155470;27;20406;-36
2021/08/20 06:05:48;;;;;;;4.03;3.05;;;20.80;71.60;;;;;;5155582;27;20051;-42
2021/08/20 06:08:14;;;;;;;2.83;2.40;;;20.80;71.60;;;;;;5155005;27;20486;-44
2021/08/20 06:10:43;;;;;;;2.92;2.38;;;20.80;71.70;;;;;;5154516;27;20039;-41
2021/08/20 06:13:13;;;;;;;2.60;2.40;;;20.80;71.60;;;;;;5154934;27;20557;-39
2021/08/20 06:15:39;;;;;;;3.97;2.70;;;20.80;71.60;;;;;;5154836;27;20050;-40
2021/08/20 06:18:04;;;;;;;3.13;2.40;;;20.80;71.70;;;;;;5155147;27;20379;-41
2021/08/20 06:20:30;;;;;;;3.90;2.83;;;20.80;71.60;;;;;;5154780;27;20110;-40
2021/08/20 06:22:56;;;;;;;3.10;2.60;;;20.80;71.70;;;;;;5136134;27;20146;-39
2021/08/20 06:25:22;;;;;;;2.75;2.20;;;20.80;71.70;;;;;;5154262;27;20498;-41
2021/08/20 06:27:47;;;;;;;2.78;2.15;;;20.80;71.70;;;;;;5154728;27;20125;-43
2021/08/20 06:30:13;;;;;;;2.97;2.50;;;20.80;71.70;;;;;;5154392;27;20081;-36
2021/08/20 06:32:39;;;;;;;3.03;2.67;;;20.80;71.70;;;;;;5154612;27;20454;-38
2021/08/20 06:35:05;;;;;;;2.65;2.00;;;20.80;71.70;;;;;;5154299;27;20519;-43
2021/08/20 06:37:31;;;;;;;2.45;2.20;;;20.90;72.30;;;;;;5154879;27;20053;-41
2021/08/20 06:39:57;;;;;;;2.90;2.40;;;20.80;71.70;;;;;;5154631;27;20050;-40
2021/08/20 06:42:23;;;;;;;2.38;2.03;;;20.80;71.70;;;;;;5153930;27;20039;-46
2021/08/20 06:44:49;;;;;;;2.50;2.10;;;20.80;71.60;;;;;;5154206;27;20046;-48
2021/08/20 06:47:15;;;;;;;2.50;2.20;;;20.80;71.60;;;;;;5154347;27;20054;-43
2021/08/20 06:49:41;;;;;;;2.60;2.17;;;20.80;71.60;;;;;;5154112;27;20136;-47
2021/08/20 06:52:11;;;;;;;3.47;2.30;;;20.80;71.70;;;;;;5153472;27;20447;-46
2021/08/20 06:54:37;;;;;;;3.13;2.45;;;20.80;71.70;;;;;;5153922;27;20054;-39
2021/08/20 06:57:03;;;;;;;2.20;2.00;;;20.80;71.60;;;;;;5153720;27;20042;-46
2021/08/20 06:59:28;;;;;;;3.15;2.40;;;20.80;71.60;;;;;;5153946;27;20043;-45
2021/08/20 07:01:54;;;;;;;2.75;2.40;;;20.80;71.60;;;;;;5154005;27;20091;-40
2021/08/20 07:04:20;;;;;;;3.05;2.40;;;20.80;71.60;;;;;;5154095;27;20058;-45
2021/08/20 07:06:46;;;;;;;2.95;2.13;;;20.90;71.70;;;;;;5153851;27;20047;-39
2021/08/20 07:09:12;;;;;;;3.53;2.92;;;20.80;71.60;;;;;;5153667;27;20483;-45
2021/08/20 07:11:39;;;;;;;2.50;2.22;;;20.80;71.60;;;;;;5153950;27;20046;-41
2021/08/20 07:14:06;;;;;;;2.40;2.13;;;20.80;71.60;;;;;;5153562;27;20186;-42
2021/08/20 07:16:32;;;;;;;2.80;2.50;;;20.80;71.60;;;;;;5153508;27;20435;-40
2021/08/20 07:18:58;;;;;;;2.60;2.40;;;20.80;71.60;;;;;;5153735;27;20494;-38
2021/08/20 07:21:23;;;;;;;3.05;2.53;;;20.80;71.60;;;;;;5153984;27;20051;-39
2021/08/20 07:23:49;;;;;;;2.67;2.15;;;20.90;71.70;;;;;;5153803;27;20538;-36
2021/08/20 07:26:16;;;;;;;2.47;2.00;;;20.90;71.70;;;;;;5153534;27;20042;-40
2021/08/20 07:28:41;;;;;;;2.97;2.45;;;20.80;71.60;;;;;;5153008;27;20115;-41
2021/08/20 07:31:07;;;;;;;3.42;2.72;;;20.80;71.70;;;;;;5153322;27;20486;-39
2021/08/20 07:33:33;;;;;;;2.55;2.35;;;20.90;71.60;;;;;;5153574;27;20050;-44
2021/08/20 07:35:59;;;;;;;2.72;2.25;;;20.80;72.30;;;;;;5153789;27;20050;-39
2021/08/20 07:38:25;;;;;;;2.55;2.28;;;20.90;71.60;;;;;;5152743;27;20450;-32
2021/08/20 07:40:51;;;;;;;2.50;2.28;;;20.90;71.60;;;;;;5149489;27;20471;-36
2021/08/20 07:43:16;;;;;;;2.45;2.13;;;20.80;71.60;;;;;;5153746;27;20545;-43
2021/08/20 07:45:42;;;;;;;2.20;2.00;;;20.90;71.60;;;;;;5153346;27;20042;-40
2021/08/20 07:48:09;;;;;;;2.42;2.00;;;20.90;71.60;;;;;;5153847;27;20054;-42
2021/08/20 07:50:35;;;;;;;2.58;2.25;;;20.80;71.60;;;;;;5153664;27;20062;-41
2021/08/20 07:53:01;;;;;;;2.78;2.42;;;20.90;71.60;;;;;;5153650;27;20043;-40
2021/08/20 07:55:27;;;;;;;2.95;2.20;;;20.90;71.60;;;;;;5152941;27;20543;-40
2021/08/20 07:57:54;;;;;;;2.88;2.35;;;20.90;71.60;;;;;;5153393;27;20047;-38
2021/08/20 08:00:25;;;;;;;3.15;2.40;;;20.90;71.60;;;;;;5152548;27;20043;-44
2021/08/20 08:02:50;;;;;;;2.70;2.22;;;20.90;71.50;;;;;;5155143;27;20047;-40
2021/08/20 08:05:17;;;;;;;2.75;2.10;;;20.90;71.50;;;;;;5156874;27;20047;-35
2021/08/20 08:07:43;;;;;;;2.63;2.20;;;20.90;71.50;;;;;;5157599;27;20107;-44
2021/08/20 08:10:09;;;;;;;3.10;2.30;;;20.90;71.50;;;;;;5156990;27;20502;-38
2021/08/20 08:12:35;;;;;;;3.00;2.22;;;20.90;71.40;;;;;;5157555;27;20047;-42
2021/08/20 08:15:01;;;;;;;2.80;2.20;;;20.90;71.40;;;;;;5157061;27;20046;-38
2021/08/20 08:17:27;;;;;;;2.50;2.30;;;20.90;71.40;;;;;;5157120;27;20062;-44
2021/08/20 08:19:52;;;;;;;2.30;2.08;;;20.90;71.40;;;;;;5157367;27;20064;-37
2021/08/20 08:22:18;;;;;;;2.20;2.00;;;20.90;71.40;;;;;;5157508;27;20043;-43
2021/08/20 08:24:44;;;;;;;2.10;1.90;;;20.90;71.40;;;;;;5157459;27;20497;-38
2021/08/20 08:27:10;;;;;;;2.20;2.00;;;20.90;72.00;;;;;;5157065;27;20046;-36
2021/08/20 08:29:35;;;;;;;2.15;1.90;;;20.90;71.40;;;;;;5152236;27;20054;-32
2021/08/20 08:32:01;;;;;;;2.67;2.13;;;20.90;71.30;;;;;;5136574;27;20067;-42
2021/08/20 08:34:27;;;;;;;2.22;2.03;;;20.90;71.30;;;;;;5148056;27;20074;-45
2021/08/20 08:36:52;;;;;;;2.25;2.05;;;20.90;71.30;;;;;;5155449;27;20091;-34
2021/08/20 08:39:18;;;;;;;2.15;1.95;;;20.90;71.30;;;;;;5156192;27;20047;-35
2021/08/20 08:41:44;;;;;;;2.42;2.08;;;20.90;71.30;;;;;;5155146;27;20117;-38
2021/08/20 08:44:10;;;;;;;2.58;2.28;;;20.90;71.30;;;;;;5156176;27;20038;-44
2021/08/20 08:46:37;;;;;;;2.20;1.85;;;20.90;71.30;;;;;;5155428;27;20754;-33
2021/08/20 08:49:07;;;;;;;3.13;1.95;;;20.90;71.30;;;;;;5155667;27;20504;-33
2021/08/20 08:51:33;;;;;;;2.00;1.80;;;20.90;71.20;;;;;;5156112;27;20099;-40
2021/08/20 08:53:59;;;;;;;2.03;1.83;;;20.90;71.20;;;;;;5155910;27;20481;-36
2021/08/20 08:56:25;;;;;;;2.20;2.00;;;20.90;71.20;;;;;;5156044;27;20047;-36
2021/08/20 08:58:51;;;;;;;2.70;2.40;;;20.90;71.20;;;;;;5155354;27;20501;-44
2021/08/20 09:01:38;;;;;;;2.20;2.00;;;21.00;71.30;;;;;;5155060;27;20041;-33
2021/08/20 09:04:13;;;;;;;2.15;1.98;;;21.00;71.30;;;;;;5155256;27;20153;-39
2021/08/20 09:06:46;;;;;;;2.47;2.03;;;21.00;71.30;;;;;;5155935;27;20120;-39
2021/08/20 09:09:15;;;;;;;2.55;1.95;;;21.00;71.30;;;;;;5154801;27;20070;-39
2021/08/20 09:11:43;;;;;;;2.38;2.10;;;21.00;71.30;;;;;;5154766;27;20078;-35
2021/08/20 09:14:10;;;;;;;2.22;2.03;;;21.00;71.30;;;;;;5154611;27;20053;-43
2021/08/20 09:16:47;;;;;;;3.00;2.00;;;21.00;71.30;;;;;;5155647;27;20118;-38
2021/08/20 09:19:23;;;;;;;2.65;2.28;;;21.00;71.20;;;;;;5155069;27;20486;-42
2021/08/20 09:21:56;;;;;;;2.00;1.80;;;21.00;71.30;;;;;;5155240;27;20343;-38
2021/08/20 09:24:39;;;;;;;2.88;2.25;;;21.00;71.30;;;;;;5155492;27;20122;-40
2021/08/20 09:27:25;;;;;;;2.85;2.13;;;21.00;71.90;;;;;;5155074;27;20054;-33
2021/08/20 09:29:55;;;;;;;2.85;2.38;;;21.00;71.20;;;;;;5154313;27;20042;-33
2021/08/20 09:32:22;;;;;;;2.35;2.13;;;21.00;71.20;;;;;;5155242;27;20043;-38
2021/08/20 09:34:57;;;;;;;2.30;2.10;;;21.00;71.20;;;;;;5139777;27;20498;-36
2021/08/20 09:37:23;;;;;;;;;;;21.10;71.30;;;;;;5134785;27;20051;-41
2021/08/20 09:39:52;;;;;;;13.13;9.60;;;21.00;71.20;;;;;;5147106;27;19923;-38
2021/08/20 09:42:19;;;;;;;8.57;6.28;;;21.00;71.70;;;;;;5147869;27;20043;-38
2021/08/20 09:44:45;;;;;;;6.95;4.40;;;21.10;71.90;;;;;;5154508;27;20070;-40
2021/08/20 09:47:12;;;;;;;7.97;6.07;;;21.10;72.00;;;;;;5150206;27;20046;-40
2021/08/20 09:49:58;;;;;;;8.98;5.78;;;21.10;72.00;;;;;;5154556;27;20050;-43
2021/08/20 09:52:28;;;;;;;5.43;4.55;;;21.10;72.10;;;;;;5155083;27;20051;-44
2021/08/20 09:54:55;;;;;;;5.22;4.40;;;21.10;72.00;;;;;;5155034;27;20050;-35
2021/08/20 09:57:25;;;;;;;5.55;4.45;;;21.10;72.00;;;;;;5154940;27;20070;-37
2021/08/20 09:59:54;;;;;;;8.07;5.30;;;21.10;71.90;;;;;;5155005;27;20050;-50
2021/08/20 10:02:25;;;;;;;5.50;4.68;;;21.10;72.00;;;;;;5154921;27;20043;-47
2021/08/20 10:04:56;;;;;;;5.53;4.72;;;21.10;72.00;;;;;;5154615;27;20095;-39
2021/08/20 10:07:25;;;;;;;11.55;8.90;;;21.10;71.90;;;;;;5154350;27;20039;-43
2021/08/20 10:09:52;;;;;;;8.07;6.53;;;21.20;72.30;;;;;;5152890;27;20073;-45
2021/08/20 10:12:20;;;;;;;8.23;6.03;;;21.30;72.20;;;;;;5154384;27;20038;-35
2021/08/20 10:14:46;;;;;;;7.07;6.00;;;21.30;72.00;;;;;;5153793;27;20129;-33
2021/08/20 10:17:14;;;;;;;6.82;5.97;;;21.30;71.80;;;;;;5153523;27;20054;-34
2021/08/20 10:19:41;;;;;;;6.70;5.60;;;21.30;71.70;;;;;;5154623;27;20089;-45
2021/08/20 10:22:08;;;;;;;5.68;4.88;;;21.30;71.60;;;;;;5154324;27;20126;-39
2021/08/20 10:24:34;;;;;;;6.80;5.20;;;21.30;71.40;;;;;;5155039;27;20047;-41
2021/08/20 10:27:05;;;;;;;6.38;5.07;;;21.30;71.40;;;;;;5153859;27;20157;-35
2021/08/20 10:29:32;;;;;;;6.45;5.38;;;21.30;71.30;;;;;;5154861;27;20134;-39
2021/08/20 10:32:02;;;;;;;6.55;4.82;;;21.30;71.30;;;;;;5155108;27;20054;-35
2021/08/20 10:34:31;;;;;;;7.25;5.13;;;21.30;71.20;;;;;;5154615;27;20383;-47
2021/08/20 10:37:04;;;;;;;5.93;5.20;;;21.30;71.20;;;;;;5154372;27;20038;-46
2021/08/20 10:39:30;;;;;;;6.85;4.90;;;21.30;71.10;;;;;;5136388;27;20046;-44
2021/08/20 10:42:04;;;;;;;7.55;5.00;;;21.30;71.10;;;;;;5154763;27;20039;-45
2021/08/20 10:44:44;;;;;;;6.38;4.57;;;21.30;71.00;;;;;;5154553;27;20043;-37
2021/08/20 10:47:25;;;;;;;6.70;4.93;;;21.40;71.10;;;;;;5154632;27;20050;-33
2021/08/20 10:50:06;;;;;;;6.45;4.72;;;21.30;71.00;;;;;;5154362;27;20527;-40
2021/08/20 10:52:34;;;;;;;5.43;3.85;;;21.30;71.00;;;;;;5154197;27;20046;-40
2021/08/20 10:55:00;;;;;;;5.13;4.45;;;21.30;71.00;;;;;;5154178;27;20055;-44
2021/08/20 10:57:35;;;;;;;5.95;4.20;;;21.40;71.00;;;;;;5154382;27;20417;-48
2021/08/20 11:00:02;;;;;;;4.93;4.38;;;21.40;71.00;;;;;;5154309;27;20343;-39
2021/08/20 11:02:31;;;;;;;5.65;4.15;;;21.40;71.00;;;;;;5154114;27;20054;-32
2021/08/20 11:04:59;;;;;;;4.65;4.13;;;21.40;71.00;;;;;;5148407;27;20947;-36
2021/08/20 11:07:37;;;;;;;4.28;3.88;;;21.40;71.00;;;;;;5143037;27;20043;-34
2021/08/20 11:10:08;;;;;;;4.38;3.75;;;21.40;70.90;;;;;;5132124;27;20062;-35
2021/08/20 11:12:44;;;;;;;6.43;3.95;;;21.40;71.00;;;;;;5132481;27;20043;-35
2021/08/20 11:15:22;;;;;;;4.32;3.53;;;21.40;70.90;;;;;;5133356;27;20047;-34
2021/08/20 11:17:48;;;;;;;4.65;3.80;;;21.40;70.90;;;;;;5133235;27;20139;-37
2021/08/20 11:20:44;;;;;;;4.40;3.58;;;21.50;71.00;;;;;;5130938;27;20054;-42
2021/08/20 11:23:10;;;;;;;;;;;21.50;70.90;;;;;;5050099;28;20136;-39
2021/08/20 11:25:57;;;;;;;3.80;3.47;;;21.50;70.90;;;;;;5049875;28;20059;-35
2021/08/20 11:28:40;;;;;;;4.18;3.40;;;21.50;71.00;;;;;;5056898;28;20493;-45
2021/08/20 11:31:08;;;;;;;4.68;3.35;;;21.50;71.00;;;;;;5046048;28;20059;-44
2021/08/20 11:33:46;;;;;;;3.47;3.08;;;21.50;70.90;;;;;;5049265;28;20060;-38
2021/08/20 11:36:19;;;;;;;4.18;3.28;;;21.50;70.90;;;;;;5048440;28;20516;-39
2021/08/20 11:38:48;;;;;;;3.58;3.13;;;21.50;70.90;;;;;;5052790;28;20053;-38
2021/08/20 11:41:40;;;;;;;3.33;2.90;;;21.50;70.80;;;;;;5052177;28;20398;-42
2021/08/20 11:44:07;;;;;;;4.07;3.55;;;21.50;70.70;;;;;;5032963;28;20080;-46
2021/08/20 11:46:39;;;;;;;3.08;2.78;;;21.50;70.80;;;;;;5033367;28;20099;-42
2021/08/20 11:49:06;;;;;;;2.92;2.63;;;21.50;70.80;;;;;;5050782;28;20052;-35
2021/08/20 11:51:40;;;;;;;3.38;2.60;;;21.50;70.70;;;;;;5052510;28;20053;-39
2021/08/20 11:54:09;;;;;;;3.30;2.97;;;21.50;70.70;;;;;;5053245;28;20078;-38
2021/08/20 11:56:36;;;;;;;3.92;3.30;;;21.50;70.70;;;;;;5051858;28;20049;-39
2021/08/20 11:59:11;;;;;;;3.05;2.53;;;21.50;70.70;;;;;;5082588;27;20145;-45
2021/08/20 12:01:40;;;;;;;3.42;2.85;;;21.60;70.70;;;;;;5157231;27;20125;-39
2021/08/20 12:04:06;;;;;;;2.95;2.60;;;21.60;70.70;;;;;;5155929;27;20047;-45
2021/08/20 12:06:33;;;;;;;3.25;2.60;;;21.60;70.60;;;;;;5157268;27;20043;-39
2021/08/20 12:09:15;;;;;;;3.58;2.60;;;21.60;70.60;;;;;;5156653;27;20058;-48
2021/08/20 12:11:43;;;;;;;2.95;2.35;;;21.60;70.50;;;;;;5154927;27;20042;-45
2021/08/20 12:14:17;;;;;;;3.38;2.70;;;21.60;70.60;;;;;;5137221;27;20051;-44
2021/08/20 12:16:47;;;;;;;2.80;2.60;;;21.60;70.50;;;;;;5156931;27;20066;-41
2021/08/20 12:19:21;;;;;;;3.00;2.70;;;21.60;70.50;;;;;;5156254;27;20095;-44
2021/08/20 12:21:51;;;;;;;2.83;2.57;;;21.60;70.50;;;;;;5156913;27;20047;-47
2021/08/20 12:24:32;;;;;;;3.20;2.63;;;21.60;70.50;;;;;;5156582;27;20038;-46
2021/08/20 12:27:17;;;;;;;2.90;2.38;;;21.60;70.40;;;;;;5155637;27;20516;-47
2021/08/20 12:30:06;;;;;;;2.88;2.38;;;21.60;70.40;;;;;;5156442;27;20046;-41
2021/08/20 12:32:36;;;;;;;2.88;2.20;;;21.60;70.40;;;;;;5052431;28;20041;-46
2021/08/20 12:35:04;;;;;;;2.67;2.42;;;21.60;70.40;;;;;;5051671;28;20512;-34
2021/08/20 12:37:30;;;;;;;3.20;2.10;;;21.60;70.40;;;;;;5052486;28;20507;-34
2021/08/20 12:40:04;;;;;;;2.67;2.35;;;21.60;70.40;;;;;;5052003;28;20048;-36
2021/08/20 12:42:29;;;;;;;2.92;2.40;;;21.60;70.40;;;;;;5066646;28;20053;-36
2021/08/20 12:45:14;;;;;;;2.55;2.35;;;21.60;70.40;;;;;;5071783;28;20420;-45
2021/08/20 12:47:41;;;;;;;3.00;2.50;;;21.60;70.30;;;;;;5072624;28;20052;-45
2021/08/20 12:50:09;;;;;;;2.50;2.10;;;21.60;70.30;;;;;;5070081;28;20056;-33
2021/08/20 12:52:36;;;;;;;2.30;2.10;;;21.60;70.40;;;;;;5072336;28;20458;-39